sensor_id;sensor_type;location;lat;lon;timestamp;pressure;altitude;pressure_sealevel;temperature;humidity
46614;BME280;32338;50.430;6.806;2023-04-27T00:02:12;65640.50;;;2.05;100.00
46614;BME280;32338;50.430;6.806;2023-04-27T00:04:40;65650.50;;;2.07;100.00
46614;BME280;32338;50.430;6.806;2023-04-27T00:07:08;65636.25;;;2.03;100.00
46614;BME280;32338;50.430;6.806;2023-04-27T00:09:35;65633.94;;;1.94;100.00
46614;BME280;32338;50.430;6.806;2023-04-27T00:12:01;65623.88;;;1.85;100.00
46614;BME280;32338;50.430;6.806;2023-04-27T00:14:28;65615.72;;;1.80;100.00
46614;BME280;32338;50.430;6.806;2023-04-27T00:16:54;65611.25;;;1.75;100.00
46614;BME280;32338;50.430;6.806;2023-04-27T00:19:21;65607.66;;;1.70;100.00
46614;BME280;32338;50.430;6.806;2023-04-27T00:21:48;65597.81;;;1.63;100.00
46614;BME280;32338;50.430;6.806;2023-04-27T00:24:16;65588.53;;;1.57;100.00
46614;BME280;32338;50.430;6.806;2023-04-27T00:26:42;65591.47;;;1.55;100.00
46614;BME280;32338;50.430;6.806;2023-04-27T00:29:09;65588.66;;;1.52;100.00
46614;BME280;32338;50.430;6.806;2023-04-27T00:31:35;65583.84;;;1.50;100.00
46614;BME280;32338;50.430;6.806;2023-04-27T00:34:02;65587.00;;;1.51;100.00
46614;BME280;32338;50.430;6.806;2023-04-27T00:36:28;65583.63;;;1.48;100.00
46614;BME280;32338;50.430;6.806;2023-04-27T00:38:55;65579.59;;;1.49;100.00
46614;BME280;32338;50.430;6.806;2023-04-27T00:41:23;65583.41;;;1.45;100.00
46614;BME280;32338;50.430;6.806;2023-04-27T00:43:49;65571.91;;;1.37;100.00
46614;BME280;32338;50.430;6.806;2023-04-27T00:46:16;65575.81;;;1.40;100.00
46614;BME280;32338;50.430;6.806;2023-04-27T00:48:44;65562.63;;;1.31;100.00
46614;BME280;32338;50.430;6.806;2023-04-27T00:51:11;65555.34;;;1.24;100.00
46614;BME280;32338;50.430;6.806;2023-04-27T00:53:38;65560.94;;;1.29;100.00
46614;BME280;32338;50.430;6.806;2023-04-27T00:56:05;65564.84;;;1.33;100.00
46614;BME280;32338;50.430;6.806;2023-04-27T00:58:34;65566.88;;;1.32;100.00
46614;BME280;32338;50.430;6.806;2023-04-27T01:01:00;65562.06;;;1.30;100.00
46614;BME280;32338;50.430;6.806;2023-04-27T01:03:29;65556.69;;;1.27;100.00
46614;BME280;32338;50.430;6.806;2023-04-27T01:05:55;65564.78;;;1.25;100.00
46614;BME280;32338;50.430;6.806;2023-04-27T01:08:25;65553.13;;;1.22;100.00
46614;BME280;32338;50.430;6.806;2023-04-27T01:10:52;65552.00;;;1.21;100.00
46614;BME280;32338;50.430;6.806;2023-04-27T01:13:19;65554.59;;;1.21;100.00
46614;BME280;32338;50.430;6.806;2023-04-27T01:15:47;65553.69;;;1.22;100.00
46614;BME280;32338;50.430;6.806;2023-04-27T01:18:13;65549.00;;;1.16;100.00
46614;BME280;32338;50.430;6.806;2023-04-27T01:20:40;65553.25;;;1.17;100.00
46614;BME280;32338;50.430;6.806;2023-04-27T01:23:07;65560.50;;;1.24;100.00
46614;BME280;32338;50.430;6.806;2023-04-27T01:25:35;65563.53;;;1.29;100.00
46614;BME280;32338;50.430;6.806;2023-04-27T01:28:02;65577.63;;;1.37;100.00
46614;BME280;32338;50.430;6.806;2023-04-27T01:30:29;65562.63;;;1.31;100.00
46614;BME280;32338;50.430;6.806;2023-04-27T01:32:55;65552.75;;;1.24;100.00
46614;BME280;32338;50.430;6.806;2023-04-27T01:35:22;65554.03;;;1.20;100.00
46614;BME280;32338;50.430;6.806;2023-04-27T01:37:49;65551.09;;;1.22;100.00
46614;BME280;32338;50.430;6.806;2023-04-27T01:40:16;65561.84;;;1.27;100.00
46614;BME280;32338;50.430;6.806;2023-04-27T01:42:44;65551.66;;;1.23;100.00
46614;BME280;32338;50.430;6.806;2023-04-27T01:45:11;65558.13;;;1.26;100.00
46614;BME280;32338;50.430;6.806;2023-04-27T01:47:37;65554.78;;;1.23;100.00
46614;BME280;32338;50.430;6.806;2023-04-27T01:50:05;65554.03;;;1.20;100.00
46614;BME280;32338;50.430;6.806;2023-04-27T01:52:31;65561.28;;;1.27;100.00
46614;BME280;32338;50.430;6.806;2023-04-27T01:54:58;65567.78;;;1.31;100.00
46614;BME280;32338;50.430;6.806;2023-04-27T01:57:24;65557.81;;;1.28;100.00
46614;BME280;32338;50.430;6.806;2023-04-27T01:59:52;65559.63;;;1.25;100.00
46614;BME280;32338;50.430;6.806;2023-04-27T02:02:19;65551.78;;;1.18;100.00
46614;BME280;32338;50.430;6.806;2023-04-27T02:04:46;65549.75;;;1.19;100.00
46614;BME280;32338;50.430;6.806;2023-04-27T02:07:12;65562.06;;;1.30;100.00
46614;BME280;32338;50.430;6.806;2023-04-27T02:09:39;65574.13;;;1.39;100.00
46614;BME280;32338;50.430;6.806;2023-04-27T02:12:06;65560.50;;;1.24;100.00
46614;BME280;32338;50.430;6.806;2023-04-27T02:14:32;65545.84;;;1.15;100.00
46614;BME280;32338;50.430;6.806;2023-04-27T02:17:00;65551.22;;;1.18;100.00
46614;BME280;32338;50.430;6.806;2023-04-27T02:19:27;65557.38;;;1.23;100.00
46614;BME280;32338;50.430;6.806;2023-04-27T02:21:53;65559.06;;;1.25;100.00
46614;BME280;32338;50.430;6.806;2023-04-27T02:24:20;65559.97;;;1.23;100.00
46614;BME280;32338;50.430;6.806;2023-04-27T02:26:46;65542.50;;;1.12;100.00
46614;BME280;32338;50.430;6.806;2023-04-27T02:29:13;65538.38;;;1.06;100.00
46614;BME280;32338;50.430;6.806;2023-04-27T02:31:41;65538.59;;;1.08;100.00
46614;BME280;32338;50.430;6.806;2023-04-27T02:34:09;65532.47;;;1.03;100.00
46614;BME280;32338;50.430;6.806;2023-04-27T02:36:35;65532.22;;;1.00;100.00
46614;BME280;32338;50.430;6.806;2023-04-27T02:39:02;65518.16;;;0.92;100.00
46614;BME280;32338;50.430;6.806;2023-04-27T02:41:30;65514.22;;;0.88;100.00
46614;BME280;32338;50.430;6.806;2023-04-27T02:43:57;65516.81;;;0.88;100.00
46614;BME280;32338;50.430;6.806;2023-04-27T02:46:23;65523.09;;;0.89;100.00
46614;BME280;32338;50.430;6.806;2023-04-27T02:48:51;65509.91;;;0.79;100.00
46614;BME280;32338;50.430;6.806;2023-04-27T02:51:19;65499.84;;;0.70;100.00
46614;BME280;32338;50.430;6.806;2023-04-27T02:53:45;65495.53;;;0.61;100.00
46614;BME280;32338;50.430;6.806;2023-04-27T02:56:12;65484.75;;;0.56;100.00
46614;BME280;32338;50.430;6.806;2023-04-27T02:58:38;65484.09;;;0.60;100.00
46614;BME280;32338;50.430;6.806;2023-04-27T03:01:05;65494.47;;;0.68;100.00
46614;BME280;32338;50.430;6.806;2023-04-27T03:03:32;65490.91;;;0.62;100.00
46614;BME280;32338;50.430;6.806;2023-04-27T03:05:58;65488.34;;;0.62;100.00
46614;BME280;32338;50.430;6.806;2023-04-27T03:08:26;65490.69;;;0.59;100.00
46614;BME280;32338;50.430;6.806;2023-04-27T03:10:53;65492.03;;;0.63;100.00
46614;BME280;32338;50.430;6.806;2023-04-27T03:13:19;65483.88;;;0.58;100.00
46614;BME280;32338;50.430;6.806;2023-04-27T03:15:46;65487.00;;;0.58;100.00
46614;BME280;32338;50.430;6.806;2023-04-27T03:18:13;65489.25;;;0.60;100.00
46614;BME280;32338;50.430;6.806;2023-04-27T03:20:40;65493.38;;;0.67;100.00
46614;BME280;32338;50.430;6.806;2023-04-27T03:23:06;65490.50;;;0.57;100.00
46614;BME280;32338;50.430;6.806;2023-04-27T03:25:34;65476.06;;;0.51;100.00
46614;BME280;32338;50.430;6.806;2023-04-27T03:28:01;65480.09;;;0.50;100.00
46614;BME280;32338;50.430;6.806;2023-04-27T03:30:27;65475.63;;;0.45;100.00
46614;BME280;32338;50.430;6.806;2023-04-27T03:32:54;65469.00;;;0.46;100.00
46614;BME280;32338;50.430;6.806;2023-04-27T03:35:20;65481.63;;;0.56;100.00
46614;BME280;32338;50.430;6.806;2023-04-27T03:37:47;65488.88;;;0.62;100.00
46614;BME280;32338;50.430;6.806;2023-04-27T03:40:13;65479.75;;;0.52;100.00
46614;BME280;32338;50.430;6.806;2023-04-27T03:42:41;65467.13;;;0.42;100.00
46614;BME280;32338;50.430;6.806;2023-04-27T03:45:09;65454.84;;;0.31;100.00
46614;BME280;32338;50.430;6.806;2023-04-27T03:47:36;65451.28;;;0.25;100.00
46614;BME280;32338;50.430;6.806;2023-04-27T03:53:24;65445.13;;;0.20;100.00
46614;BME280;32338;50.430;6.806;2023-04-27T03:55:50;65441.44;;;0.19;100.00
46614;BME280;32338;50.430;6.806;2023-04-27T03:58:18;65445.13;;;0.20;100.00
46614;BME280;32338;50.430;6.806;2023-04-27T04:00:45;65446.25;;;0.21;100.00
46614;BME280;32338;50.430;6.806;2023-04-27T04:03:12;65458.31;;;0.29;100.00
46614;BME280;32338;50.430;6.806;2023-04-27T04:05:38;65452.41;;;0.26;100.00
46614;BME280;32338;50.430;6.806;2023-04-27T04:08:05;65444.22;;;0.21;100.00
46614;BME280;32338;50.430;6.806;2023-04-27T04:10:31;65440.66;;;0.15;100.00
46614;BME280;32338;50.430;6.806;2023-04-27T04:12:58;65429.94;;;0.10;100.00
46614;BME280;32338;50.430;6.806;2023-04-27T04:15:26;65422.03;;;-0.04;100.00
46614;BME280;32338;50.430;6.806;2023-04-27T04:17:52;65414.09;;;-0.07;100.00
46614;BME280;32338;50.430;6.806;2023-04-27T04:20:19;65415.22;;;-0.06;100.00
46614;BME280;32338;50.430;6.806;2023-04-27T04:22:46;65412.44;;;-0.08;100.00
46614;BME280;32338;50.430;6.806;2023-04-27T04:25:13;65408.84;;;-0.14;100.00
46614;BME280;32338;50.430;6.806;2023-04-27T04:27:39;65411.63;;;-0.11;100.00
46614;BME280;32338;50.430;6.806;2023-04-27T04:30:07;65405.19;;;-0.15;100.00
46614;BME280;32338;50.430;6.806;2023-04-27T04:32:35;65402.38;;;-0.18;100.00
46614;BME280;32338;50.430;6.806;2023-04-27T04:35:03;65407.97;;;-0.12;100.00
46614;BME280;32338;50.430;6.806;2023-04-27T04:37:32;65412.84;;;-0.03;100.00
46614;BME280;32338;50.430;6.806;2023-04-27T04:39:59;65416.88;;;-0.04;100.00
46614;BME280;32338;50.430;6.806;2023-04-27T04:42:26;65421.56;;;0.03;100.00
46614;BME280;32338;50.430;6.806;2023-04-27T04:44:52;65428.03;;;0.06;100.00
46614;BME280;32338;50.430;6.806;2023-04-27T04:47:19;65424.16;;;0.03;100.00
46614;BME280;32338;50.430;6.806;2023-04-27T04:49:47;65426.50;;;0.00;100.00
46614;BME280;32338;50.430;6.806;2023-04-27T04:52:14;65419.66;;;-0.02;100.00
46614;BME280;32338;50.430;6.806;2023-04-27T04:54:40;65430.06;;;0.06;100.00
46614;BME280;32338;50.430;6.806;2023-04-27T04:57:07;65428.19;;;0.02;100.00
46614;BME280;32338;50.430;6.806;2023-04-27T04:59:34;65415.97;;;-0.03;100.00
46614;BME280;32338;50.430;6.806;2023-04-27T05:02:01;65425.59;;;0.02;100.00
46614;BME280;32338;50.430;6.806;2023-04-27T05:04:27;65427.50;;;0.06;100.00
46614;BME280;32338;50.430;6.806;2023-04-27T05:06:55;65435.84;;;0.13;100.00
46614;BME280;32338;50.430;6.806;2023-04-27T05:09:22;65458.75;;;0.35;100.00
46614;BME280;32338;50.430;6.806;2023-04-27T05:11:48;65488.25;;;0.55;100.00
46614;BME280;32338;50.430;6.806;2023-04-27T05:14:15;65499.16;;;0.74;100.00
46614;BME280;32338;50.430;6.806;2023-04-27T05:16:43;65520.72;;;0.92;100.00
46614;BME280;32338;50.430;6.806;2023-04-27T05:19:10;65542.72;;;1.15;100.00
46614;BME280;32338;50.430;6.806;2023-04-27T05:21:37;65582.53;;;1.47;100.00
46614;BME280;32338;50.430;6.806;2023-04-27T05:24:06;65619.06;;;1.83;100.00
46614;BME280;32338;50.430;6.806;2023-04-27T05:26:32;65657.66;;;2.18;100.00
46614;BME280;32338;50.430;6.806;2023-04-27T05:28:59;65685.38;;;2.41;100.00
46614;BME280;32338;50.430;6.806;2023-04-27T05:31:25;65693.00;;;2.46;100.00
46614;BME280;32338;50.430;6.806;2023-04-27T05:33:52;65694.34;;;2.50;100.00
46614;BME280;32338;50.430;6.806;2023-04-27T05:36:19;65696.78;;;2.54;100.00
46614;BME280;32338;50.430;6.806;2023-04-27T05:38:45;65703.72;;;2.63;100.00
46614;BME280;32338;50.430;6.806;2023-04-27T05:41:13;65657.78;;;2.14;100.00
46614;BME280;32338;50.430;6.806;2023-04-27T05:43:40;65623.34;;;1.84;100.00
46614;BME280;32338;50.430;6.806;2023-04-27T05:46:06;65603.63;;;1.71;100.00
46614;BME280;32338;50.430;6.806;2023-04-27T05:48:33;65606.22;;;1.71;100.00
46614;BME280;32338;50.430;6.806;2023-04-27T05:51:00;65604.53;;;1.69;100.00
46614;BME280;32338;50.430;6.806;2023-04-27T05:53:27;65602.09;;;1.65;100.00
46614;BME280;32338;50.430;6.806;2023-04-27T05:55:53;65593.13;;;1.56;100.00
46614;BME280;32338;50.430;6.806;2023-04-27T05:58:22;65576.38;;;1.41;100.00
46614;BME280;32338;50.430;6.806;2023-04-27T06:00:48;65568.91;;;1.32;100.00
46614;BME280;32338;50.430;6.806;2023-04-27T06:03:15;65574.69;;;1.39;100.00
46614;BME280;32338;50.430;6.806;2023-04-27T06:05:41;65583.63;;;1.48;100.00
46614;BME280;32338;50.430;6.806;2023-04-27T06:08:08;65590.91;;;1.54;100.00
46614;BME280;32338;50.430;6.806;2023-04-27T06:10:35;65598.38;;;1.64;100.00
46614;BME280;32338;50.430;6.806;2023-04-27T06:13:02;65605.63;;;1.70;100.00
46614;BME280;32338;50.430;6.806;2023-04-27T06:15:30;65611.44;;;1.78;100.00
46614;BME280;32338;50.430;6.806;2023-04-27T06:17:56;65622.75;;;1.84;100.00
46614;BME280;32338;50.430;6.806;2023-04-27T06:20:23;65629.84;;;1.88;100.00
46614;BME280;32338;50.430;6.806;2023-04-27T06:22:49;65632.25;;;1.92;100.00
46614;BME280;32338;50.430;6.806;2023-04-27T06:25:16;65633.03;;;1.96;100.00
46614;BME280;32338;50.430;6.806;2023-04-27T06:27:42;65643.09;;;2.05;100.00
46614;BME280;32338;50.430;6.806;2023-04-27T06:30:10;65651.84;;;2.10;100.00
46614;BME280;32338;50.430;6.806;2023-04-27T06:32:38;65656.53;;;2.17;100.00
46614;BME280;32338;50.430;6.806;2023-04-27T06:35:05;65664.34;;;2.24;100.00
46614;BME280;32338;50.430;6.806;2023-04-27T06:37:32;65672.94;;;2.35;100.00
46614;BME280;32338;50.430;6.806;2023-04-27T06:39:58;65688.63;;;2.49;100.00
46614;BME280;32338;50.430;6.806;2023-04-27T06:42:25;65708.13;;;2.60;100.00
46614;BME280;32338;50.430;6.806;2023-04-27T06:44:52;65727.13;;;2.78;100.00
46614;BME280;32338;50.430;6.806;2023-04-27T06:47:19;65730.00;;;2.87;100.00
46614;BME280;32338;50.430;6.806;2023-04-27T06:49:47;65745.47;;;2.99;100.00
46614;BME280;32338;50.430;6.806;2023-04-27T06:52:15;65754.06;;;3.10;100.00
46614;BME280;32338;50.430;6.806;2023-04-27T06:54:41;65770.78;;;3.18;100.00
46614;BME280;32338;50.430;6.806;2023-04-27T06:57:08;65774.91;;;3.24;100.00
46614;BME280;32338;50.430;6.806;2023-04-27T06:59:35;65789.13;;;3.39;100.00
46614;BME280;32338;50.430;6.806;2023-04-27T07:02:01;65794.34;;;3.47;100.00
46614;BME280;32338;50.430;6.806;2023-04-27T07:04:28;65797.88;;;3.45;100.00
46614;BME280;32338;50.430;6.806;2023-04-27T07:06:56;65805.16;;;3.52;100.00
46614;BME280;32338;50.430;6.806;2023-04-27T07:09:22;65819.34;;;3.67;100.00
46614;BME280;32338;50.430;6.806;2023-04-27T07:11:49;65835.19;;;3.77;100.00
46614;BME280;32338;50.430;6.806;2023-04-27T07:14:16;65844.78;;;3.93;100.00
46614;BME280;32338;50.430;6.806;2023-04-27T07:16:42;65867.09;;;4.06;100.00
46614;BME280;32338;50.430;6.806;2023-04-27T07:19:09;65878.53;;;4.19;100.00
46614;BME280;32338;50.430;6.806;2023-04-27T07:21:36;65882.09;;;4.25;100.00
46614;BME280;32338;50.430;6.806;2023-04-27T07:24:04;65893.84;;;4.36;100.00
46614;BME280;32338;50.430;6.806;2023-04-27T07:26:31;65908.22;;;4.47;100.00
46614;BME280;32338;50.430;6.806;2023-04-27T07:28:58;65909.53;;;4.50;100.00
46614;BME280;32338;50.430;6.806;2023-04-27T07:31:24;65925.25;;;4.65;100.00
46614;BME280;32338;50.430;6.806;2023-04-27T07:33:52;65947.81;;;4.81;100.00
46614;BME280;32338;50.430;6.806;2023-04-27T07:36:20;65942.25;;;4.83;100.00
46614;BME280;32338;50.430;6.806;2023-04-27T07:38:46;65964.28;;;4.98;100.00
46614;BME280;32338;50.430;6.806;2023-04-27T07:41:14;65957.56;;;4.92;100.00
46614;BME280;32338;50.430;6.806;2023-04-27T07:43:40;65955.91;;;4.98;100.00
46614;BME280;32338;50.430;6.806;2023-04-27T07:46:07;65962.78;;;4.99;100.00
46614;BME280;32338;50.430;6.806;2023-04-27T07:48:34;65980.16;;;5.15;100.00
46614;BME280;32338;50.430;6.806;2023-04-27T07:51:00;65995.88;;;5.30;100.00
46614;BME280;32338;50.430;6.806;2023-04-27T07:53:27;66017.50;;;5.40;100.00
46614;BME280;32338;50.430;6.806;2023-04-27T07:55:54;66019.97;;;5.52;100.00
46614;BME280;32338;50.430;6.806;2023-04-27T07:58:22;66022.63;;;5.59;100.00
46614;BME280;32338;50.430;6.806;2023-04-27T08:00:48;66036.44;;;5.69;100.00
46614;BME280;32338;50.430;6.806;2023-04-27T08:03:15;66043.56;;;5.74;100.00
46614;BME280;32338;50.430;6.806;2023-04-27T08:05:41;66052.53;;;5.82;100.00
46614;BME280;32338;50.430;6.806;2023-04-27T08:08:08;66075.91;;;6.01;100.00
46614;BME280;32338;50.430;6.806;2023-04-27T08:10:34;66093.31;;;6.17;100.00
46614;BME280;32338;50.430;6.806;2023-04-27T08:13:02;66118.56;;;6.40;100.00
46614;BME280;32338;50.430;6.806;2023-04-27T08:15:30;66118.78;;;6.43;100.00
46614;BME280;32338;50.430;6.806;2023-04-27T08:17:57;66132.97;;;6.51;100.00
46614;BME280;32338;50.430;6.806;2023-04-27T08:20:23;66130.94;;;6.52;100.00
46614;BME280;32338;50.430;6.806;2023-04-27T08:22:50;66135.41;;;6.56;100.00
46614;BME280;32338;50.430;6.806;2023-04-27T08:25:17;66143.47;;;6.65;100.00
46614;BME280;32338;50.430;6.806;2023-04-27T08:27:44;66159.56;;;6.78;100.00
46614;BME280;32338;50.430;6.806;2023-04-27T08:30:11;66169.66;;;6.87;100.00
46614;BME280;32338;50.430;6.806;2023-04-27T08:32:39;66157.72;;;6.81;100.00
46614;BME280;32338;50.430;6.806;2023-04-27T08:35:06;66174.91;;;6.94;100.00
46614;BME280;32338;50.430;6.806;2023-04-27T08:37:32;66194.19;;;7.07;100.00
46614;BME280;32338;50.430;6.806;2023-04-27T08:39:59;66206.56;;;7.26;100.00
46614;BME280;32338;50.430;6.806;2023-04-27T08:42:25;66220.78;;;7.34;100.00
46614;BME280;32338;50.430;6.806;2023-04-27T08:44:52;66234.28;;;7.46;100.00
46614;BME280;32338;50.430;6.806;2023-04-27T08:47:18;66246.28;;;7.60;100.00
46614;BME280;32338;50.430;6.806;2023-04-27T08:49:46;66254.13;;;7.67;100.00
46614;BME280;32338;50.430;6.806;2023-04-27T08:52:14;66262.78;;;7.77;100.00
46614;BME280;32338;50.430;6.806;2023-04-27T08:54:41;66278.31;;;7.89;100.00
46614;BME280;32338;50.430;6.806;2023-04-27T08:57:09;66264.66;;;7.82;100.00
46614;BME280;32338;50.430;6.806;2023-04-27T08:59:37;66285.63;;;7.96;100.00
46614;BME280;32338;50.430;6.806;2023-04-27T09:02:03;66267.81;;;7.82;93.96
46614;BME280;32338;50.430;6.806;2023-04-27T09:04:37;66280.75;;;7.94;100.00
46614;BME280;32338;50.430;6.806;2023-04-27T09:07:12;66303.97;;;8.10;100.00
46614;BME280;32338;50.430;6.806;2023-04-27T09:09:38;66291.59;;;7.99;97.06
46614;BME280;32338;50.430;6.806;2023-04-27T09:12:15;66311.06;;;8.15;100.00
46614;BME280;32338;50.430;6.806;2023-04-27T09:14:43;66315.06;;;8.25;100.00
46614;BME280;32338;50.430;6.806;2023-04-27T09:17:10;66324.97;;;8.32;100.00
46614;BME280;32338;50.430;6.806;2023-04-27T09:19:36;66336.97;;;8.46;100.00
46614;BME280;32338;50.430;6.806;2023-04-27T09:22:05;66349.72;;;8.55;93.88
46614;BME280;32338;50.430;6.806;2023-04-27T09:24:34;66362.47;;;8.64;95.88
46614;BME280;32338;50.430;6.806;2023-04-27T09:27:01;66370.38;;;8.71;94.28
46614;BME280;32338;50.430;6.806;2023-04-27T09:29:33;66383.69;;;8.88;97.31
46614;BME280;32338;50.430;6.806;2023-04-27T09:32:00;66388.97;;;8.96;100.00
46614;BME280;32338;50.430;6.806;2023-04-27T09:34:36;66388.41;;;8.95;91.38
46614;BME280;32338;50.430;6.806;2023-04-27T09:37:03;66398.88;;;8.95;100.00
46614;BME280;32338;50.430;6.806;2023-04-27T09:39:30;66410.16;;;9.13;95.94
46614;BME280;32338;50.430;6.806;2023-04-27T09:41:58;66401.28;;;9.00;91.20
46614;BME280;32338;50.430;6.806;2023-04-27T09:44:27;66402.78;;;8.99;91.28
46614;BME280;32338;50.430;6.806;2023-04-27T09:46:57;66402.06;;;9.03;92.24
46614;BME280;32338;50.430;6.806;2023-04-27T09:49:25;66414.63;;;9.17;92.86
46614;BME280;32338;50.430;6.806;2023-04-27T09:51:52;66429.63;;;9.28;91.68
46614;BME280;32338;50.430;6.806;2023-04-27T09:54:19;66437.16;;;9.37;100.00
46614;BME280;32338;50.430;6.806;2023-04-27T09:56:54;66447.66;;;9.45;84.81
46614;BME280;32338;50.430;6.806;2023-04-27T09:59:38;66465.09;;;9.61;96.10
46614;BME280;32338;50.430;6.806;2023-04-27T10:02:09;66466.44;;;9.64;83.92
46614;BME280;32338;50.430;6.806;2023-04-27T10:04:54;66455.34;;;9.49;80.29
46614;BME280;32338;50.430;6.806;2023-04-27T10:07:28;66441.09;;;9.41;79.53
46614;BME280;32338;50.430;6.806;2023-04-27T10:10:00;66463.41;;;9.59;90.20
46614;BME280;32338;50.430;6.806;2023-04-27T10:12:32;66476.34;;;9.71;80.91
46614;BME280;32338;50.430;6.806;2023-04-27T10:15:11;66504.88;;;9.95;88.65
46614;BME280;32338;50.430;6.806;2023-04-27T10:17:38;66522.34;;;10.11;82.49
46614;BME280;32338;50.430;6.806;2023-04-27T10:20:06;66530.22;;;10.18;83.28
46614;BME280;32338;50.430;6.806;2023-04-27T10:22:38;66523.09;;;10.14;75.80
46614;BME280;32338;50.430;6.806;2023-04-27T10:25:18;66537.38;;;10.29;86.85
46614;BME280;32338;50.430;6.806;2023-04-27T10:27:49;66545.84;;;10.37;81.92
46614;BME280;32338;50.430;6.806;2023-04-27T10:30:20;66556.72;;;10.42;79.98
46614;BME280;32338;50.430;6.806;2023-04-27T10:32:50;66565.56;;;10.55;79.46
46614;BME280;32338;50.430;6.806;2023-04-27T10:35:18;66562.00;;;10.49;76.67
46614;BME280;32338;50.430;6.806;2023-04-27T10:37:45;66551.13;;;10.44;74.21
46614;BME280;32338;50.430;6.806;2023-04-27T10:40:14;66568.56;;;10.53;70.40
46614;BME280;32338;50.430;6.806;2023-04-27T10:42:42;66566.69;;;10.56;70.66
46614;BME280;32338;50.430;6.806;2023-04-27T10:45:10;66578.53;;;10.67;73.53
46614;BME280;32338;50.430;6.806;2023-04-27T10:47:40;66584.16;;;10.72;77.95
46614;BME280;32338;50.430;6.806;2023-04-27T10:50:08;66588.31;;;10.78;81.68
46614;BME280;32338;50.430;6.806;2023-04-27T10:52:39;66600.88;;;10.85;80.58
46614;BME280;32338;50.430;6.806;2023-04-27T10:55:13;66598.63;;;10.83;73.33
46614;BME280;32338;50.430;6.806;2023-04-27T10:57:47;66610.25;;;10.91;75.93
46614;BME280;32338;50.430;6.806;2023-04-27T11:00:20;66635.63;;;11.14;81.48
46614;BME280;32338;50.430;6.806;2023-04-27T11:02:49;66598.41;;;10.80;65.98
46614;BME280;32338;50.430;6.806;2023-04-27T11:05:17;66603.69;;;10.87;79.85
46614;BME280;32338;50.430;6.806;2023-04-27T11:07:44;66605.38;;;10.89;70.23
46614;BME280;32338;50.430;6.806;2023-04-27T11:10:14;66611.38;;;10.92;70.21
46614;BME280;32338;50.430;6.806;2023-04-27T11:12:40;66635.81;;;11.17;77.52
46614;BME280;32338;50.430;6.806;2023-04-27T11:15:08;66667.38;;;11.46;87.88
46614;BME280;32338;50.430;6.806;2023-04-27T11:17:35;66675.69;;;11.58;68.56
46614;BME280;32338;50.430;6.806;2023-04-27T11:20:03;66706.47;;;11.84;82.70
46614;BME280;32338;50.430;6.806;2023-04-27T11:22:31;66697.66;;;11.71;64.19
46614;BME280;32338;50.430;6.806;2023-04-27T11:24:59;66689.56;;;11.68;69.58
46614;BME280;32338;50.430;6.806;2023-04-27T11:27:35;66716.47;;;11.91;67.12
46614;BME280;32338;50.430;6.806;2023-04-27T11:30:03;66733.00;;;12.01;73.66
46614;BME280;32338;50.430;6.806;2023-04-27T11:32:31;66729.44;;;12.03;69.40
46614;BME280;32338;50.430;6.806;2023-04-27T11:34:58;66735.09;;;12.08;68.64
46614;BME280;32338;50.430;6.806;2023-04-27T11:37:26;66730.75;;;11.99;64.95
46614;BME280;32338;50.430;6.806;2023-04-27T11:39:54;66731.31;;;12.07;63.58
46614;BME280;32338;50.430;6.806;2023-04-27T11:42:23;66755.41;;;12.26;69.88
46614;BME280;32338;50.430;6.806;2023-04-27T11:44:53;66787.38;;;12.53;72.99
46614;BME280;32338;50.430;6.806;2023-04-27T11:47:20;66792.09;;;12.60;64.25
46614;BME280;32338;50.430;6.806;2023-04-27T11:49:47;66781.91;;;12.51;60.73
46614;BME280;32338;50.430;6.806;2023-04-27T11:52:14;66808.63;;;12.70;62.14
46614;BME280;32338;50.430;6.806;2023-04-27T11:54:47;66820.28;;;12.86;61.49
46614;BME280;32338;50.430;6.806;2023-04-27T11:57:15;66829.91;;;12.94;60.82
46614;BME280;32338;50.430;6.806;2023-04-27T11:59:41;66822.75;;;12.83;63.12
46614;BME280;32338;50.430;6.806;2023-04-27T12:02:08;66807.50;;;12.76;59.13
46614;BME280;32338;50.430;6.806;2023-04-27T12:04:35;66795.28;;;12.60;59.25
46614;BME280;32338;50.430;6.806;2023-04-27T12:07:01;66805.81;;;12.75;66.23
46614;BME280;32338;50.430;6.806;2023-04-27T12:09:29;66792.28;;;12.62;60.00
46614;BME280;32338;50.430;6.806;2023-04-27T12:11:57;66769.50;;;12.39;57.19
46614;BME280;32338;50.430;6.806;2023-04-27T12:14:23;66789.44;;;12.60;61.01
46614;BME280;32338;50.430;6.806;2023-04-27T12:16:50;66816.91;;;12.82;64.47
46614;BME280;32338;50.430;6.806;2023-04-27T12:19:17;66821.25;;;12.84;59.08
46614;BME280;32338;50.430;6.806;2023-04-27T12:21:43;66843.81;;;13.12;57.32
46614;BME280;32338;50.430;6.806;2023-04-27T12:24:10;66875.81;;;13.32;62.83
46614;BME280;32338;50.430;6.806;2023-04-27T12:26:37;66903.72;;;13.59;60.08
46614;BME280;32338;50.430;6.806;2023-04-27T12:29:05;66883.38;;;13.41;56.91
46614;BME280;32338;50.430;6.806;2023-04-27T12:31:32;66874.34;;;13.40;56.96
46614;BME280;32338;50.430;6.806;2023-04-27T12:33:58;66844.56;;;13.08;56.81
46614;BME280;32338;50.430;6.806;2023-04-27T12:36:25;66835.00;;;13.06;60.52
46614;BME280;32338;50.430;6.806;2023-04-27T12:38:56;66849.84;;;13.15;64.59
46614;BME280;32338;50.430;6.806;2023-04-27T12:41:22;66892.41;;;13.49;60.55
46614;BME280;32338;50.430;6.806;2023-04-27T12:43:49;66931.97;;;13.85;59.25
46614;BME280;32338;50.430;6.806;2023-04-27T12:46:17;66938.00;;;13.95;58.02
46614;BME280;32338;50.430;6.806;2023-04-27T12:48:44;66907.09;;;13.62;55.47
46614;BME280;32338;50.430;6.806;2023-04-27T12:51:11;66985.84;;;14.37;63.39
46614;BME280;32338;50.430;6.806;2023-04-27T12:53:37;66996.22;;;14.49;64.99
46614;BME280;32338;50.430;6.806;2023-04-27T12:56:04;66992.25;;;14.45;63.09
46614;BME280;32338;50.430;6.806;2023-04-27T12:58:31;67024.88;;;14.72;57.72
46614;BME280;32338;50.430;6.806;2023-04-27T13:00:58;66972.28;;;14.24;53.85
46614;BME280;32338;50.430;6.806;2023-04-27T13:03:26;66984.69;;;14.36;67.42
46614;BME280;32338;50.430;6.806;2023-04-27T13:05:52;66931.78;;;13.90;55.13